createdAt,value
2022-08-17T00:01:38.489Z,21.77
2022-08-17T00:04:20.164Z,20.48
2022-08-17T00:06:49.177Z,21.20
2022-08-17T00:09:18.895Z,22.20
2022-08-17T00:12:40.386Z,17.88
2022-08-17T00:14:36.173Z,17.25
2022-08-17T00:17:04.498Z,23.67
2022-08-17T00:19:32.817Z,17.08
2022-08-17T00:22:35.027Z,21.10
2022-08-17T00:24:50.526Z,25.38
2022-08-17T00:27:18.385Z,23.77
2022-08-17T00:29:45.693Z,22.55
2022-08-17T00:33:14.778Z,16.70
2022-08-17T00:35:08.021Z,23.73
2022-08-17T00:37:35.160Z,18.73
2022-08-17T00:40:02.316Z,17.10
2022-08-17T00:42:31.231Z,18.27
2022-08-17T00:44:58.949Z,15.45
2022-08-17T00:47:26.674Z,21.40
2022-08-17T00:49:53.909Z,17.75
2022-08-17T00:52:27.828Z,14.93
2022-08-17T00:54:55.165Z,18.63
2022-08-17T00:57:30.276Z,15.90
2022-08-17T01:00:04.846Z,18.08
2022-08-17T01:02:43.289Z,18.30
2022-08-17T01:05:18.604Z,25.88
2022-08-17T01:07:48.145Z,19.05
2022-08-17T01:10:59.824Z,13.82
2022-08-17T01:13:04.106Z,29.08
2022-08-17T01:15:37.759Z,23.83
2022-08-17T01:18:08.567Z,18.00
2022-08-17T01:20:57.589Z,18.92
2022-08-17T01:23:27.444Z,22.33
2022-08-17T01:25:59.472Z,16.25
2022-08-17T01:28:33.424Z,16.20
2022-08-17T01:31:18.323Z,19.65
2022-08-17T01:33:45.467Z,17.08
2022-08-17T01:36:12.148Z,18.00
2022-08-17T01:38:40.322Z,21.50
2022-08-17T01:41:12.113Z,16.17
2022-08-17T01:43:50.699Z,16.80
2022-08-17T01:46:22.294Z,20.75
2022-08-17T01:48:51.355Z,19.17
2022-08-17T01:51:18.235Z,22.08
2022-08-17T01:53:49.744Z,18.20
2022-08-17T01:56:21.139Z,19.55
2022-08-17T01:58:48.923Z,27.60
2022-08-17T02:01:19.707Z,22.25
2022-08-17T02:03:59.133Z,19.52
2022-08-17T02:06:31.433Z,19.42
2022-08-17T02:09:16.487Z,17.27
2022-08-17T02:11:44.984Z,19.63
2022-08-17T02:14:13.411Z,18.13
2022-08-17T02:16:41.848Z,19.75
2022-08-17T02:19:12.140Z,21.05
2022-08-17T02:21:40.719Z,23.45
2022-08-17T02:24:11.394Z,17.92
2022-08-17T02:26:38.838Z,24.00
2022-08-17T02:29:05.525Z,21.60
2022-08-17T02:31:32.582Z,23.80
2022-08-17T02:34:03.884Z,20.63
2022-08-17T02:36:34.299Z,19.55
2022-08-17T02:39:06.609Z,25.00
2022-08-17T02:41:34.537Z,21.80
2022-08-17T02:44:01.389Z,27.58
2022-08-17T02:46:30.663Z,21.02
2022-08-17T02:48:57.825Z,22.67
2022-08-17T02:51:27.750Z,28.35
2022-08-17T02:54:40.817Z,24.70
2022-08-17T02:56:42.161Z,28.75
2022-08-17T02:59:08.850Z,21.63
2022-08-17T03:01:35.886Z,29.90
2022-08-17T03:04:02.651Z,23.50
2022-08-17T03:06:30.631Z,22.20
2022-08-17T03:08:57.396Z,26.25
2022-08-17T03:11:24.815Z,22.77
2022-08-17T03:13:51.519Z,24.85
2022-08-17T03:16:18.813Z,26.65
2022-08-17T03:18:45.864Z,19.35
2022-08-17T03:21:13.359Z,18.85
2022-08-17T03:23:42.039Z,22.10
2022-08-17T03:26:12.300Z,17.95
2022-08-17T03:28:42.387Z,29.73
2022-08-17T03:31:09.612Z,17.63
2022-08-17T03:33:36.291Z,20.30
2022-08-17T03:36:03.821Z,24.27
2022-08-17T03:38:39.270Z,16.95
2022-08-17T03:41:07.245Z,17.73
2022-08-17T03:43:34.580Z,16.92
2022-08-17T03:46:27.900Z,14.68
2022-08-17T03:49:18.128Z,17.35
2022-08-17T03:52:03.887Z,17.10
2022-08-17T03:54:49.460Z,14.27
2022-08-17T03:57:16.923Z,18.17
2022-08-17T03:59:45.071Z,14.85
2022-08-17T04:02:23.654Z,15.50
2022-08-17T04:04:51.390Z,13.45
2022-08-17T04:07:26.274Z,16.70
2022-08-17T04:09:53.325Z,11.10
2022-08-17T04:12:23.217Z,13.23
2022-08-17T04:14:52.890Z,19.23
2022-08-17T04:17:24.863Z,12.38
2022-08-17T04:19:51.999Z,10.27
2022-08-17T04:22:30.461Z,11.05
2022-08-17T04:25:09.192Z,13.18
2022-08-17T04:27:36.899Z,18.05
2022-08-17T04:30:07.146Z,12.68
2022-08-17T04:33:04.734Z,12.18
2022-08-17T04:35:49.924Z,10.20
2022-08-17T04:38:20.759Z,11.32
2022-08-17T04:41:06.998Z,17.83
2022-08-17T04:43:36.357Z,11.88
2022-08-17T04:46:06.134Z,11.15
2022-08-17T04:48:39.952Z,8.70
2022-08-17T04:51:10.447Z,12.30
2022-08-17T04:53:40.703Z,8.77
2022-08-17T04:56:07.721Z,9.75
2022-08-17T04:58:39.236Z,13.73
2022-08-17T05:01:06.984Z,8.57
2022-08-17T05:03:35.108Z,8.27
2022-08-17T05:06:01.794Z,13.45
2022-08-17T05:08:29.324Z,11.20
2022-08-17T05:10:56.220Z,11.18
2022-08-17T05:13:26.325Z,10.70
2022-08-17T05:16:00.754Z,9.77
2022-08-17T05:18:29.752Z,8.25
2022-08-17T05:20:56.996Z,11.43
2022-08-17T05:23:26.756Z,11.77
2022-08-17T05:26:02.521Z,13.63
2022-08-17T05:28:30.418Z,15.02
2022-08-17T05:30:59.999Z,17.17
2022-08-17T05:33:31.750Z,13.73
2022-08-17T05:36:00.746Z,12.23
2022-08-17T05:38:29.877Z,12.40
2022-08-17T05:40:57.646Z,8.23
2022-08-17T05:43:27.650Z,12.85
2022-08-17T05:46:35.774Z,15.85
2022-08-17T05:49:08.114Z,13.88
2022-08-17T05:52:03.590Z,17.17
2022-08-17T05:54:33.959Z,21.33
2022-08-17T05:57:27.475Z,15.98
2022-08-17T06:00:07.556Z,21.92
2022-08-17T06:02:58.876Z,18.45
2022-08-17T06:05:31.804Z,13.20
2022-08-17T06:08:30.263Z,19.50
2022-08-17T06:11:21.424Z,18.08
2022-08-17T06:16:28.210Z,17.90
2022-08-17T06:19:13.540Z,17.17
2022-08-17T06:21:44.743Z,16.83
2022-08-17T06:24:37.904Z,17.13
2022-08-17T06:27:43.717Z,16.55
2022-08-17T06:30:15.869Z,18.05
2022-08-17T06:32:45.691Z,13.07
2022-08-17T06:35:36.854Z,18.02
2022-08-17T06:38:04.170Z,14.32
2022-08-17T06:40:59.630Z,12.57
2022-08-17T06:43:40.101Z,15.35
2022-08-17T06:46:13.214Z,19.92
2022-08-17T06:48:52.189Z,15.48
2022-08-17T06:51:39.593Z,22.02
2022-08-17T06:54:06.370Z,26.00
2022-08-17T06:56:52.970Z,20.52
2022-08-17T06:59:55.903Z,19.85
2022-08-17T07:02:52.768Z,21.73
2022-08-17T07:05:25.715Z,21.00
2022-08-17T07:08:04.751Z,18.83
2022-08-17T07:10:41.168Z,21.05
2022-08-17T07:13:30.855Z,25.25
2022-08-17T07:16:20.733Z,26.10
2022-08-17T07:18:50.700Z,22.92
2022-08-17T07:21:27.897Z,26.38
2022-08-17T07:24:29.365Z,21.95
2022-08-17T07:27:08.594Z,25.17
2022-08-17T07:30:02.990Z,19.70
2022-08-17T07:32:58.008Z,23.38
2022-08-17T07:35:41.251Z,32.80
2022-08-17T07:38:25.972Z,25.55
2022-08-17T07:41:03.209Z,27.25
2022-08-17T07:43:38.994Z,36.22
2022-08-17T07:46:36.929Z,32.72
2022-08-17T07:49:03.531Z,26.90
2022-08-17T07:51:39.979Z,36.13
2022-08-17T07:54:15.531Z,36.83
2022-08-17T07:56:52.651Z,35.88
2022-08-17T07:59:23.049Z,37.08
2022-08-17T08:02:05.412Z,39.35
2022-08-17T08:05:01.311Z,29.40
2022-08-17T08:08:05.852Z,32.78
2022-08-17T08:10:42.725Z,36.10
2022-08-17T08:13:24.259Z,40.35
2022-08-17T08:16:11.353Z,38.47
2022-08-17T08:18:56.038Z,35.85
2022-08-17T08:21:54.714Z,38.58
2022-08-17T08:24:31.204Z,55.05
2022-08-17T08:27:14.010Z,44.40
2022-08-17T08:30:04.888Z,43.10
2022-08-17T08:32:54.066Z,41.30
2022-08-17T08:35:48.644Z,38.83
2022-08-17T08:38:36.620Z,34.78
2022-08-17T08:41:29.718Z,38.65
2022-08-17T08:50:08.313Z,37.42
2022-08-17T08:53:14.473Z,35.58
2022-08-17T08:55:53.507Z,41.70
2022-08-17T08:58:43.756Z,39.38
2022-08-17T09:01:23.773Z,38.35
2022-08-17T09:04:17.866Z,37.88
2022-08-17T09:07:10.778Z,39.92
2022-08-17T09:09:59.889Z,38.63
2022-08-17T09:12:41.533Z,36.90
2022-08-17T09:15:18.109Z,39.20
2022-08-17T09:19:02.676Z,36.75
2022-08-17T09:20:57.873Z,39.75
2022-08-17T09:23:33.416Z,39.25
2022-08-17T09:26:09.649Z,40.88
2022-08-17T09:28:42.809Z,35.85
2022-08-17T09:31:14.017Z,40.25
2022-08-17T09:33:45.705Z,35.08
2022-08-17T09:37:08.244Z,45.60
2022-08-17T09:39:43.591Z,43.58
2022-08-17T09:42:55.434Z,45.40
2022-08-17T09:45:49.326Z,40.90
2022-08-17T09:48:23.428Z,29.83
2022-08-17T09:51:04.749Z,33.33
2022-08-17T09:53:35.658Z,32.13
2022-08-17T09:56:26.338Z,31.52
2022-08-17T09:59:05.471Z,30.90
2022-08-17T10:01:47.398Z,30.40
2022-08-17T10:04:40.350Z,36.97
2022-08-17T10:07:18.751Z,33.42
2022-08-17T10:09:55.636Z,35.35
2022-08-17T10:12:39.367Z,35.42
2022-08-17T10:15:36.557Z,36.70
2022-08-17T10:18:08.396Z,34.58
2022-08-17T10:21:19.571Z,38.43
2022-08-17T10:24:21.447Z,39.10
2022-08-17T10:26:56.557Z,37.17
2022-08-17T10:29:49.850Z,31.70
2022-08-17T10:32:33.883Z,36.17
2022-08-17T10:35:19.839Z,38.63
2022-08-17T10:38:17.323Z,41.17
2022-08-17T10:41:00.952Z,36.45
2022-08-17T10:43:37.139Z,40.92
2022-08-17T10:46:46.453Z,40.17
2022-08-17T10:49:20.960Z,47.92
2022-08-17T10:52:00.355Z,42.90
2022-08-17T10:54:58.783Z,44.40
2022-08-17T10:57:47.134Z,46.80
2022-08-17T11:00:25.545Z,43.75
2022-08-17T11:02:55.664Z,43.47
2022-08-17T11:05:50.296Z,42.20
2022-08-17T11:08:42.277Z,41.92
2022-08-17T11:14:23.784Z,44.95
2022-08-17T11:17:14.426Z,42.78
2022-08-17T11:19:53.093Z,40.40
2022-08-17T11:22:39.458Z,45.85
2022-08-17T11:25:14.656Z,52.28
2022-08-17T11:27:42.844Z,56.53
2022-08-17T11:30:35.794Z,52.38
2022-08-17T11:33:29.780Z,51.65
2022-08-17T11:36:22.221Z,52.35
2022-08-17T11:38:57.905Z,46.03
2022-08-17T11:42:00.686Z,52.80
2022-08-17T11:45:04.255Z,49.85
2022-08-17T11:48:23.888Z,53.92
2022-08-17T11:51:05.463Z,59.88
2022-08-17T11:53:38.723Z,59.47
2022-08-17T11:56:28.878Z,61.47
2022-08-17T11:58:55.972Z,62.80
2022-08-17T12:01:22.616Z,68.03
2022-08-17T12:03:58.798Z,64.20
2022-08-17T12:06:44.658Z,64.40
2022-08-17T12:09:40.415Z,61.97
2022-08-17T12:12:19.919Z,60.10
2022-08-17T12:15:09.662Z,65.95
2022-08-17T12:17:50.639Z,65.05
2022-08-17T12:20:28.229Z,60.03
2022-08-17T12:23:04.080Z,65.90
2022-08-17T12:25:42.825Z,62.78
2022-08-17T12:28:31.281Z,62.80
2022-08-17T12:31:22.940Z,68.50
2022-08-17T12:33:51.708Z,68.20
2022-08-17T12:36:28.265Z,70.78
2022-08-17T12:39:14.182Z,70.13
2022-08-17T12:41:50.421Z,74.50
2022-08-17T12:44:21.413Z,74.30
2022-08-17T12:46:56.205Z,81.50
2022-08-17T12:49:31.182Z,73.38
2022-08-17T12:52:26.907Z,81.72
2022-08-17T12:55:12.637Z,81.45
2022-08-17T12:57:43.435Z,89.45
2022-08-17T13:00:15.634Z,87.32
2022-08-17T13:02:49.445Z,90.45
2022-08-17T13:05:22.638Z,88.78
2022-08-17T13:07:51.156Z,90.72
2022-08-17T13:10:22.933Z,81.43
2022-08-17T13:12:51.246Z,79.85
2022-08-17T13:15:27.443Z,82.80
2022-08-17T13:18:04.648Z,74.13
2022-08-17T13:20:31.863Z,77.07
2022-08-17T13:23:01.733Z,66.40
2022-08-17T13:25:29.756Z,69.90
2022-08-17T13:27:57.506Z,66.75
2022-08-17T13:30:33.055Z,70.07
2022-08-17T13:33:04.137Z,68.40
2022-08-17T13:35:40.927Z,69.35
2022-08-17T13:38:12.854Z,60.63
2022-08-17T13:40:41.500Z,63.55
2022-08-17T13:43:10.871Z,62.00
2022-08-17T13:45:43.344Z,65.80
2022-08-17T13:48:28.075Z,63.60
2022-08-17T13:50:57.708Z,64.65
2022-08-17T13:53:33.138Z,60.47
2022-08-17T13:56:38.183Z,59.00
2022-08-17T13:59:02.937Z,58.95
2022-08-17T14:01:39.350Z,57.80
2022-08-17T14:04:10.244Z,51.75
2022-08-17T14:06:54.381Z,56.75
2022-08-17T14:09:27.078Z,56.92
2022-08-17T14:11:55.345Z,51.92
2022-08-17T14:14:23.075Z,53.33
2022-08-17T14:16:54.493Z,50.83
2022-08-17T14:19:24.493Z,52.42
2022-08-17T14:21:56.308Z,57.28
2022-08-17T14:24:29.654Z,59.23
2022-08-17T14:26:58.043Z,52.65
2022-08-17T14:29:28.138Z,55.10
2022-08-17T14:31:56.591Z,55.97
2022-08-17T14:34:24.879Z,55.95
2022-08-17T14:36:53.094Z,55.05
2022-08-17T14:39:20.575Z,62.70
2022-08-17T14:41:47.710Z,57.45
2022-08-17T14:44:15.204Z,55.50
2022-08-17T14:46:44.975Z,54.80
2022-08-17T14:49:15.468Z,52.45
2022-08-17T14:51:43.694Z,51.50
2022-08-17T14:54:32.912Z,51.55
2022-08-17T14:57:23.150Z,48.03
2022-08-17T14:59:48.854Z,45.58
2022-08-17T15:02:22.193Z,41.20
2022-08-17T15:05:04.773Z,37.85
2022-08-17T15:07:31.848Z,36.50
2022-08-17T15:10:02.144Z,37.40
2022-08-17T15:12:34.584Z,31.63
2022-08-17T15:15:05.183Z,35.00
2022-08-17T15:17:44.298Z,28.70
2022-08-17T15:20:24.939Z,28.73
2022-08-17T15:22:55.449Z,29.02
2022-08-17T15:25:26.005Z,27.08
2022-08-17T15:27:53.966Z,30.67
2022-08-17T15:30:24.493Z,31.70
2022-08-17T15:32:55.225Z,30.65
2022-08-17T15:35:28.052Z,32.53
2022-08-17T15:38:10.573Z,37.72
2022-08-17T15:40:42.708Z,35.70
2022-08-17T15:43:23.455Z,39.08
2022-08-17T15:46:12.064Z,39.97
2022-08-17T15:48:41.633Z,37.40
2022-08-17T15:51:11.395Z,37.35
2022-08-17T15:53:39.475Z,32.80
2022-08-17T15:56:07.212Z,38.35
2022-08-17T15:58:35.476Z,34.17
2022-08-17T16:01:14.889Z,34.67
2022-08-17T16:06:32.615Z,30.67
2022-08-17T16:09:00.280Z,29.83
2022-08-17T16:11:27.294Z,26.98
2022-08-17T16:13:54.776Z,28.77
2022-08-17T16:16:23.886Z,29.02
2022-08-17T16:18:54.552Z,26.85
2022-08-17T16:21:26.026Z,27.35
2022-08-17T16:24:12.679Z,28.33
2022-08-17T16:26:40.575Z,31.85
2022-08-17T16:29:07.528Z,27.50
2022-08-17T16:31:37.420Z,29.02
2022-08-17T16:34:17.457Z,25.92
2022-08-17T16:36:50.548Z,22.98
2022-08-17T16:39:25.368Z,28.42
2022-08-17T16:41:52.441Z,17.83
2022-08-17T16:44:20.772Z,15.80
2022-08-17T16:46:48.821Z,17.42
2022-08-17T16:49:36.375Z,15.38
2022-08-17T16:52:05.917Z,14.90
2022-08-17T16:54:35.013Z,16.77
2022-08-17T16:57:03.885Z,14.13
2022-08-17T16:59:39.617Z,18.73
2022-08-17T17:02:14.519Z,20.17
2022-08-17T17:04:49.341Z,19.88
2022-08-17T17:07:34.149Z,18.45
2022-08-17T17:10:15.193Z,17.85
2022-08-17T17:13:03.095Z,20.27
2022-08-17T17:15:51.594Z,18.00
2022-08-17T17:18:22.990Z,19.33
2022-08-17T17:20:56.568Z,19.00
2022-08-17T17:23:30.067Z,24.05
2022-08-17T17:26:19.926Z,24.40
2022-08-17T17:29:01.342Z,15.00
2022-08-17T17:31:38.003Z,17.75
2022-08-17T17:34:10.232Z,14.27
2022-08-17T17:36:46.259Z,15.52
2022-08-17T17:39:17.749Z,17.63
2022-08-17T17:41:56.347Z,16.80
2022-08-17T17:44:29.787Z,16.48
2022-08-17T17:46:59.676Z,15.82
2022-08-17T17:49:32.855Z,17.35
2022-08-17T17:52:13.119Z,16.60
2022-08-17T17:54:57.475Z,16.10
2022-08-17T17:57:24.724Z,11.85
2022-08-17T17:59:59.732Z,19.45
2022-08-17T18:02:51.758Z,16.35
2022-08-17T18:05:38.488Z,15.50
2022-08-17T18:08:31.949Z,17.35
2022-08-17T18:11:35.403Z,18.27
2022-08-17T18:14:18.306Z,17.40
2022-08-17T18:16:48.014Z,19.42
2022-08-17T18:19:22.407Z,20.63
2022-08-17T18:22:27.953Z,19.15
2022-08-17T18:24:58.727Z,20.20
2022-08-17T18:27:37.929Z,22.20
2022-08-17T18:30:28.766Z,21.88
2022-08-17T18:33:22.134Z,21.60
2022-08-17T18:35:58.544Z,22.77
2022-08-17T18:38:36.574Z,24.85
2022-08-17T18:41:30.211Z,22.80
2022-08-17T18:44:03.995Z,28.25
2022-08-17T18:46:34.919Z,24.60
2022-08-17T18:49:24.179Z,29.15
2022-08-17T18:52:21.776Z,28.27
2022-08-17T18:55:00.985Z,29.15
2022-08-17T18:57:49.781Z,33.33
2022-08-17T19:00:31.702Z,30.58
2022-08-17T19:03:32.657Z,30.50
2022-08-17T19:06:28.138Z,31.05
2022-08-17T19:08:54.865Z,33.08
2022-08-17T19:11:28.469Z,36.90
2022-08-17T19:14:10.375Z,32.53
2022-08-17T19:16:55.900Z,33.78
2022-08-17T19:19:30.484Z,32.35
2022-08-17T19:22:06.285Z,38.42
2022-08-17T19:24:35.195Z,32.25
2022-08-17T19:27:34.904Z,33.60
2022-08-17T19:30:14.484Z,38.55
2022-08-17T19:32:41.211Z,34.47
2022-08-17T19:35:17.185Z,36.92
2022-08-17T19:38:13.157Z,36.47
2022-08-17T19:40:55.718Z,38.75
2022-08-17T19:43:40.910Z,36.58
2022-08-17T19:46:31.055Z,39.95
2022-08-17T19:49:03.603Z,41.10
2022-08-17T19:51:44.907Z,49.55
2022-08-17T19:54:30.859Z,43.75
2022-08-17T19:57:08.030Z,51.30
2022-08-17T19:59:53.346Z,49.63
2022-08-17T20:02:36.643Z,50.58
2022-08-17T20:05:18.828Z,51.20
2022-08-17T20:07:57.827Z,47.70
2022-08-17T20:10:54.509Z,45.13
2022-08-17T20:13:32.990Z,45.90
2022-08-17T20:16:01.630Z,47.60
2022-08-17T20:18:47.606Z,48.10
2022-08-17T20:21:19.703Z,48.33
2022-08-17T20:24:01.883Z,51.17
2022-08-17T20:26:57.894Z,49.58
2022-08-17T20:29:39.954Z,56.78
2022-08-17T20:32:18.612Z,56.05
2022-08-17T20:34:47.065Z,58.03
2022-08-17T20:37:14.294Z,56.65
2022-08-17T20:39:49.960Z,56.78
2022-08-17T20:42:22.528Z,57.80
2022-08-17T20:44:53.244Z,61.38
2022-08-17T20:47:34.246Z,63.17
2022-08-17T20:50:08.056Z,59.25
2022-08-17T20:52:56.986Z,60.40
2022-08-17T20:55:51.811Z,70.35
2022-08-17T20:58:23.159Z,66.15
2022-08-17T21:01:11.431Z,68.45
2022-08-17T21:03:50.695Z,64.82
2022-08-17T21:06:21.509Z,68.18
2022-08-17T21:09:13.057Z,67.20
2022-08-17T21:12:03.120Z,70.03
2022-08-17T21:15:04.133Z,66.95
2022-08-17T21:17:48.217Z,74.32
2022-08-17T21:20:42.210Z,69.63
2022-08-17T21:23:21.002Z,73.93
2022-08-17T21:25:57.354Z,78.47
2022-08-17T21:29:00.265Z,75.93
2022-08-17T21:31:34.281Z,79.15
2022-08-17T21:34:16.583Z,85.38
2022-08-17T21:36:47.291Z,83.73
2022-08-17T21:39:23.299Z,75.03
2022-08-17T21:41:57.656Z,80.65
2022-08-17T21:44:36.499Z,80.82
2022-08-17T21:47:21.937Z,92.57
2022-08-17T21:49:49.191Z,100.22
2022-08-17T21:52:19.579Z,98.15
2022-08-17T21:54:58.300Z,97.43
2022-08-17T21:57:27.868Z,96.65
2022-08-17T21:59:57.946Z,108.45
2022-08-17T22:02:34.840Z,100.45
2022-08-17T22:05:13.598Z,110.45
2022-08-17T22:07:53.069Z,103.82
2022-08-17T22:10:41.534Z,120.90
2022-08-17T22:13:19.731Z,121.88
2022-08-17T22:15:49.089Z,127.95
2022-08-17T22:18:27.300Z,122.57
2022-08-17T22:20:57.327Z,128.25
2022-08-17T22:24:05.434Z,131.10
2022-08-17T22:27:11.781Z,133.07
2022-08-17T22:29:53.133Z,129.82
2022-08-17T22:32:46.755Z,136.70
2022-08-17T22:35:25.474Z,135.35
2022-08-17T22:37:53.213Z,131.88
2022-08-17T22:40:30.312Z,128.38
2022-08-17T22:42:59.399Z,133.50
2022-08-17T22:45:29.647Z,134.80
2022-08-17T22:47:58.886Z,136.73
2022-08-17T22:50:28.983Z,133.43
2022-08-17T22:53:37.225Z,124.75
2022-08-17T22:56:22.872Z,126.55
2022-08-17T22:59:12.579Z,124.70
2022-08-17T23:01:40.699Z,123.63
2022-08-17T23:04:11.969Z,124.57
2022-08-17T23:06:42.234Z,124.57
2022-08-17T23:09:09.632Z,125.38
2022-08-17T23:11:48.784Z,119.63
2022-08-17T23:14:20.095Z,126.07
2022-08-17T23:16:48.832Z,115.45
2022-08-17T23:19:19.116Z,123.70
2022-08-17T23:21:46.701Z,127.18
2022-08-17T23:24:26.120Z,121.72
2022-08-17T23:26:53.897Z,130.27
2022-08-17T23:29:21.377Z,134.10
2022-08-17T23:31:49.391Z,131.27
2022-08-17T23:34:18.354Z,134.43
2022-08-17T23:36:50.478Z,131.82
2022-08-17T23:39:24.498Z,126.15
2022-08-17T23:41:53.368Z,127.40
2022-08-17T23:44:23.943Z,128.70
2022-08-17T23:46:51.699Z,121.65
2022-08-17T23:49:19.478Z,115.35
2022-08-17T23:51:48.720Z,109.80
2022-08-17T23:54:35.027Z,108.53
2022-08-17T23:57:04.675Z,108.72
2022-08-17T23:59:32.826Z,121.60
